sensor_id;sensor_type;location;lat;lon;timestamp;pressure;altitude;pressure_sealevel;temperature;humidity
70072;BME280;57434;42.794;23.302;2023-05-22T00:00:19;95384.94;;;13.62;nan
70072;BME280;57434;42.794;23.302;2023-05-22T00:01:21;95404.31;;;13.82;nan
70072;BME280;57434;42.794;23.302;2023-05-22T00:02:23;95405.88;;;13.78;nan
70072;BME280;57434;42.794;23.302;2023-05-22T00:03:26;95400.56;;;13.63;nan
70072;BME280;57434;42.794;23.302;2023-05-22T00:04:27;95376.31;;;13.49;nan
70072;BME280;57434;42.794;23.302;2023-05-22T00:05:30;95411.09;;;13.51;nan
70072;BME280;57434;42.794;23.302;2023-05-22T00:06:33;95398.81;;;13.54;nan
70072;BME280;57434;42.794;23.302;2023-05-22T00:07:34;95329.53;;;13.07;nan
70072;BME280;57434;42.794;23.302;2023-05-22T00:08:36;95289.19;;;12.76;nan
70072;BME280;57434;42.794;23.302;2023-05-22T00:09:38;95409.09;;;13.46;nan
70072;BME280;57434;42.794;23.302;2023-05-22T00:10:41;95269.78;;;12.56;nan
70072;BME280;57434;42.794;23.302;2023-05-22T00:11:43;95333.44;;;12.93;nan
70072;BME280;57434;42.794;23.302;2023-05-22T00:12:45;95307.66;;;12.66;nan
70072;BME280;57434;42.794;23.302;2023-05-22T00:13:47;95347.97;;;13.08;nan
70072;BME280;57434;42.794;23.302;2023-05-22T00:14:49;95270.56;;;12.51;nan
70072;BME280;57434;42.794;23.302;2023-05-22T00:15:52;95356.69;;;13.04;nan
70072;BME280;57434;42.794;23.302;2023-05-22T00:16:53;95193.66;;;11.98;nan
70072;BME280;57434;42.794;23.302;2023-05-22T00:17:55;95433.69;;;13.46;nan
70072;BME280;57434;42.794;23.302;2023-05-22T00:18:57;95401.16;;;13.45;nan
70072;BME280;57434;42.794;23.302;2023-05-22T00:19:59;95395.28;;;13.43;nan
70072;BME280;57434;42.794;23.302;2023-05-22T00:21:01;95256.00;;;12.47;nan
70072;BME280;57434;42.794;23.302;2023-05-22T00:22:04;95407.25;;;13.54;nan
70072;BME280;57434;42.794;23.302;2023-05-22T00:23:06;95363.56;;;13.20;nan
70072;BME280;57434;42.794;23.302;2023-05-22T00:24:08;95431.59;;;13.52;nan
70072;BME280;57434;42.794;23.302;2023-05-22T00:25:10;95411.34;;;13.53;nan
70072;BME280;57434;42.794;23.302;2023-05-22T00:26:15;95375.81;;;13.28;nan
70072;BME280;57434;42.794;23.302;2023-05-22T00:27:17;95279.50;;;12.61;nan
70072;BME280;57434;42.794;23.302;2023-05-22T00:28:19;95303.31;;;12.60;nan
70072;BME280;57434;42.794;23.302;2023-05-22T00:29:21;95374.31;;;13.21;nan
70072;BME280;57434;42.794;23.302;2023-05-22T00:30:23;95415.25;;;13.45;nan
70072;BME280;57434;42.794;23.302;2023-05-22T00:31:25;95391.16;;;13.33;nan
70072;BME280;57434;42.794;23.302;2023-05-22T00:32:27;95388.63;;;13.23;nan
70072;BME280;57434;42.794;23.302;2023-05-22T00:33:29;95259.09;;;12.32;nan
70072;BME280;57434;42.794;23.302;2023-05-22T00:34:31;95323.25;;;12.45;nan
70072;BME280;57434;42.794;23.302;2023-05-22T00:35:33;95425.03;;;12.99;nan
70072;BME280;57434;42.794;23.302;2023-05-22T00:36:35;95233.03;;;11.76;nan
70072;BME280;57434;42.794;23.302;2023-05-22T00:37:36;95282.09;;;12.42;nan
70072;BME280;57434;42.794;23.302;2023-05-22T00:38:38;95272.38;;;12.43;nan
70072;BME280;57434;42.794;23.302;2023-05-22T00:39:40;95380.22;;;13.07;nan
70072;BME280;57434;42.794;23.302;2023-05-22T00:40:42;95313.53;;;12.63;nan
70072;BME280;57434;42.794;23.302;2023-05-22T00:41:44;95404.00;;;13.22;nan
70072;BME280;57434;42.794;23.302;2023-05-22T00:42:46;95375.16;;;12.94;nan
70072;BME280;57434;42.794;23.302;2023-05-22T00:43:48;95371.50;;;13.16;nan
70072;BME280;57434;42.794;23.302;2023-05-22T00:44:50;95324.75;;;12.79;nan
70072;BME280;57434;42.794;23.302;2023-05-22T00:45:52;95231.44;;;12.42;nan
70072;BME280;57434;42.794;23.302;2023-05-22T00:46:54;95427.97;;;13.68;nan
70072;BME280;57434;42.794;23.302;2023-05-22T00:47:56;95357.34;;;13.33;nan
70072;BME280;57434;42.794;23.302;2023-05-22T00:48:58;95359.41;;;13.38;nan
70072;BME280;57434;42.794;23.302;2023-05-22T00:50:00;95288.41;;;12.87;nan
70072;BME280;57434;42.794;23.302;2023-05-22T00:51:02;95381.84;;;13.66;nan
70072;BME280;57434;42.794;23.302;2023-05-22T00:52:06;95247.72;;;12.77;nan
70072;BME280;57434;42.794;23.302;2023-05-22T00:53:09;95301.38;;;13.12;nan
70072;BME280;57434;42.794;23.302;2023-05-22T00:54:11;95430.47;;;13.83;nan
70072;BME280;57434;42.794;23.302;2023-05-22T00:55:14;95322.31;;;13.22;nan
70072;BME280;57434;42.794;23.302;2023-05-22T00:56:17;95396.97;;;13.63;nan
70072;BME280;57434;42.794;23.302;2023-05-22T00:57:19;95378.88;;;13.41;nan
70072;BME280;57434;42.794;23.302;2023-05-22T00:58:24;95381.94;;;13.43;nan
70072;BME280;57434;42.794;23.302;2023-05-22T00:59:28;95410.22;;;13.79;nan
70072;BME280;57434;42.794;23.302;2023-05-22T01:00:30;95391.84;;;13.61;nan
70072;BME280;57434;42.794;23.302;2023-05-22T01:01:32;95319.00;;;13.18;nan
70072;BME280;57434;42.794;23.302;2023-05-22T01:02:34;95397.00;;;13.51;nan
70072;BME280;57434;42.794;23.302;2023-05-22T01:03:37;95409.03;;;13.63;nan
70072;BME280;57434;42.794;23.302;2023-05-22T01:04:49;95371.69;;;13.40;nan
70072;BME280;57434;42.794;23.302;2023-05-22T01:05:51;95246.50;;;12.55;nan
70072;BME280;57434;42.794;23.302;2023-05-22T01:06:53;95284.31;;;12.82;nan
70072;BME280;57434;42.794;23.302;2023-05-22T01:07:55;95394.50;;;13.42;nan
70072;BME280;57434;42.794;23.302;2023-05-22T01:08:57;95350.75;;;13.19;nan
70072;BME280;57434;42.794;23.302;2023-05-22T01:09:59;95379.69;;;13.19;nan
70072;BME280;57434;42.794;23.302;2023-05-22T01:11:11;95392.97;;;13.41;nan
70072;BME280;57434;42.794;23.302;2023-05-22T01:12:23;95341.84;;;13.04;nan
70072;BME280;57434;42.794;23.302;2023-05-22T01:16:34;95393.72;;;13.31;nan
70072;BME280;57434;42.794;23.302;2023-05-22T01:17:53;95298.69;;;12.57;nan
70072;BME280;57434;42.794;23.302;2023-05-22T01:20:56;95353.91;;;12.87;nan
70072;BME280;57434;42.794;23.302;2023-05-22T01:22:41;95399.16;;;13.17;nan
70072;BME280;57434;42.794;23.302;2023-05-22T01:24:13;95306.16;;;12.37;nan
70072;BME280;57434;42.794;23.302;2023-05-22T01:25:47;95358.78;;;12.70;nan
70072;BME280;57434;42.794;23.302;2023-05-22T01:28:32;95244.78;;;12.08;nan
70072;BME280;57434;42.794;23.302;2023-05-22T01:31:03;95392.00;;;13.05;nan
70072;BME280;57434;42.794;23.302;2023-05-22T01:32:08;95362.63;;;12.84;nan
70072;BME280;57434;42.794;23.302;2023-05-22T01:33:13;95263.94;;;12.15;nan
70072;BME280;57434;42.794;23.302;2023-05-22T01:36:12;95354.69;;;12.71;nan
70072;BME280;57434;42.794;23.302;2023-05-22T01:37:16;95387.44;;;12.85;nan
70072;BME280;57434;42.794;23.302;2023-05-22T01:38:19;95275.19;;;12.09;nan
70072;BME280;57434;42.794;23.302;2023-05-22T01:39:22;95253.72;;;12.12;nan
70072;BME280;57434;42.794;23.302;2023-05-22T01:40:25;95396.66;;;12.92;nan
70072;BME280;57434;42.794;23.302;2023-05-22T01:41:32;95305.38;;;12.20;nan
70072;BME280;57434;42.794;23.302;2023-05-22T01:42:34;95321.97;;;12.46;nan
70072;BME280;57434;42.794;23.302;2023-05-22T01:43:36;95288.50;;;12.20;nan
70072;BME280;57434;42.794;23.302;2023-05-22T01:44:39;95409.47;;;12.87;nan
70072;BME280;57434;42.794;23.302;2023-05-22T01:45:41;95344.50;;;12.46;nan
70072;BME280;57434;42.794;23.302;2023-05-22T01:46:43;95391.81;;;12.81;nan
70072;BME280;57434;42.794;23.302;2023-05-22T01:47:45;95223.31;;;11.77;nan
70072;BME280;57434;42.794;23.302;2023-05-22T01:48:48;95402.81;;;12.73;nan
70072;BME280;57434;42.794;23.302;2023-05-22T01:49:50;95382.88;;;12.54;nan
70072;BME280;57434;42.794;23.302;2023-05-22T01:50:53;95198.03;;;11.66;nan
70072;BME280;57434;42.794;23.302;2023-05-22T01:52:44;95258.34;;;12.09;nan
70072;BME280;57434;42.794;23.302;2023-05-22T01:53:32;95382.06;;;12.87;nan
70072;BME280;57434;42.794;23.302;2023-05-22T01:55:51;95329.16;;;12.47;nan
70072;BME280;57434;42.794;23.302;2023-05-22T01:57:03;95272.38;;;12.15;nan
70072;BME280;57434;42.794;23.302;2023-05-22T01:58:28;95360.88;;;12.64;nan
70072;BME280;57434;42.794;23.302;2023-05-22T01:59:38;95228.69;;;11.69;nan
70072;BME280;57434;42.794;23.302;2023-05-22T02:00:44;95361.38;;;12.46;nan
70072;BME280;57434;42.794;23.302;2023-05-22T02:01:49;95330.69;;;12.26;nan
70072;BME280;57434;42.794;23.302;2023-05-22T02:02:59;95371.38;;;12.36;nan
70072;BME280;57434;42.794;23.302;2023-05-22T02:04:08;95231.47;;;11.64;nan
70072;BME280;57434;42.794;23.302;2023-05-22T02:05:11;95256.53;;;11.73;nan
70072;BME280;57434;42.794;23.302;2023-05-22T02:06:16;95271.34;;;11.79;nan
70072;BME280;57434;42.794;23.302;2023-05-22T02:07:21;95374.94;;;12.25;nan
70072;BME280;57434;42.794;23.302;2023-05-22T02:08:24;95359.59;;;12.32;nan
70072;BME280;57434;42.794;23.302;2023-05-22T02:09:28;95262.91;;;11.68;nan
70072;BME280;57434;42.794;23.302;2023-05-22T02:10:32;95323.50;;;12.13;nan
70072;BME280;57434;42.794;23.302;2023-05-22T02:11:36;95274.66;;;11.66;nan
70072;BME280;57434;42.794;23.302;2023-05-22T02:12:40;95213.06;;;11.29;nan
70072;BME280;57434;42.794;23.302;2023-05-22T02:13:42;95348.84;;;12.19;nan
70072;BME280;57434;42.794;23.302;2023-05-22T02:14:44;95380.03;;;12.43;nan
70072;BME280;57434;42.794;23.302;2023-05-22T02:15:47;95288.22;;;11.79;nan
70072;BME280;57434;42.794;23.302;2023-05-22T02:16:49;95357.00;;;12.11;nan
70072;BME280;57434;42.794;23.302;2023-05-22T02:17:51;95269.00;;;11.49;nan
70072;BME280;57434;42.794;23.302;2023-05-22T02:19:00;95345.75;;;12.11;nan
70072;BME280;57434;42.794;23.302;2023-05-22T02:20:02;95357.03;;;12.23;nan
70072;BME280;57434;42.794;23.302;2023-05-22T02:21:04;95253.44;;;11.60;nan
70072;BME280;57434;42.794;23.302;2023-05-22T02:22:06;95327.59;;;12.07;nan
70072;BME280;57434;42.794;23.302;2023-05-22T02:23:08;95343.72;;;12.17;nan
70072;BME280;57434;42.794;23.302;2023-05-22T02:24:12;95285.66;;;11.81;nan
70072;BME280;57434;42.794;23.302;2023-05-22T02:25:14;95211.25;;;11.32;nan
70072;BME280;57434;42.794;23.302;2023-05-22T02:26:17;95216.88;;;11.26;nan
70072;BME280;57434;42.794;23.302;2023-05-22T02:27:18;95296.31;;;11.43;nan
70072;BME280;57434;42.794;23.302;2023-05-22T02:28:20;95353.94;;;12.09;nan
70072;BME280;57434;42.794;23.302;2023-05-22T02:29:22;95247.53;;;11.35;nan
70072;BME280;57434;42.794;23.302;2023-05-22T02:30:25;95373.34;;;12.13;nan
70072;BME280;57434;42.794;23.302;2023-05-22T02:31:27;95325.53;;;11.79;nan
70072;BME280;57434;42.794;23.302;2023-05-22T02:32:29;95344.44;;;11.96;nan
70072;BME280;57434;42.794;23.302;2023-05-22T02:33:30;95242.91;;;11.21;nan
70072;BME280;57434;42.794;23.302;2023-05-22T02:34:32;95382.53;;;12.13;nan
70072;BME280;57434;42.794;23.302;2023-05-22T02:35:34;95261.56;;;11.35;nan
70072;BME280;57434;42.794;23.302;2023-05-22T02:36:36;95312.97;;;11.64;nan
70072;BME280;57434;42.794;23.302;2023-05-22T02:37:38;95338.31;;;11.80;nan
70072;BME280;57434;42.794;23.302;2023-05-22T02:38:39;95264.38;;;11.35;nan
70072;BME280;57434;42.794;23.302;2023-05-22T02:39:41;95332.94;;;11.77;nan
70072;BME280;57434;42.794;23.302;2023-05-22T02:40:43;95331.38;;;11.70;nan
70072;BME280;57434;42.794;23.302;2023-05-22T02:41:45;95349.81;;;11.82;nan
70072;BME280;57434;42.794;23.302;2023-05-22T02:42:47;95360.78;;;11.86;nan
70072;BME280;57434;42.794;23.302;2023-05-22T02:43:49;95299.63;;;11.36;nan
70072;BME280;57434;42.794;23.302;2023-05-22T02:44:51;95384.28;;;11.88;nan
70072;BME280;57434;42.794;23.302;2023-05-22T02:45:53;95011.97;;;9.40;nan
70072;BME280;57434;42.794;23.302;2023-05-22T02:46:55;95239.75;;;10.91;nan
70072;BME280;57434;42.794;23.302;2023-05-22T02:47:57;95394.25;;;11.78;nan
70072;BME280;57434;42.794;23.302;2023-05-22T02:48:59;95259.94;;;10.95;nan
70072;BME280;57434;42.794;23.302;2023-05-22T02:50:00;95287.59;;;11.25;nan
70072;BME280;57434;42.794;23.302;2023-05-22T02:51:02;95397.56;;;11.77;nan
70072;BME280;57434;42.794;23.302;2023-05-22T02:52:05;95334.63;;;11.46;nan
70072;BME280;57434;42.794;23.302;2023-05-22T02:53:07;95393.50;;;11.83;nan
70072;BME280;57434;42.794;23.302;2023-05-22T02:54:09;95251.22;;;10.88;nan
70072;BME280;57434;42.794;23.302;2023-05-22T02:55:11;95264.97;;;10.85;nan
70072;BME280;57434;42.794;23.302;2023-05-22T02:56:13;95391.38;;;11.56;nan
70072;BME280;57434;42.794;23.302;2023-05-22T02:57:15;95350.91;;;11.31;nan
70072;BME280;57434;42.794;23.302;2023-05-22T02:58:16;95363.69;;;11.32;nan
70072;BME280;57434;42.794;23.302;2023-05-22T02:59:18;95209.19;;;10.50;nan
70072;BME280;57434;42.794;23.302;2023-05-22T03:00:20;95368.03;;;11.33;nan
70072;BME280;57434;42.794;23.302;2023-05-22T03:01:22;95362.78;;;11.58;nan
70072;BME280;57434;42.794;23.302;2023-05-22T03:02:24;95384.53;;;11.74;nan
70072;BME280;57434;42.794;23.302;2023-05-22T03:03:26;95364.28;;;11.59;nan
70072;BME280;57434;42.794;23.302;2023-05-22T03:04:29;95366.34;;;11.64;nan
70072;BME280;57434;42.794;23.302;2023-05-22T03:05:31;95353.84;;;11.65;nan
70072;BME280;57434;42.794;23.302;2023-05-22T03:06:33;95369.72;;;11.79;nan
70072;BME280;57434;42.794;23.302;2023-05-22T03:07:35;95220.09;;;10.85;nan
70072;BME280;57434;42.794;23.302;2023-05-22T03:08:37;95297.31;;;11.35;nan
70072;BME280;57434;42.794;23.302;2023-05-22T03:09:39;95381.72;;;11.74;nan
70072;BME280;57434;42.794;23.302;2023-05-22T03:10:41;95365.41;;;11.83;nan
70072;BME280;57434;42.794;23.302;2023-05-22T03:11:43;95407.06;;;11.96;nan
70072;BME280;57434;42.794;23.302;2023-05-22T03:12:45;95229.81;;;10.96;nan
70072;BME280;57434;42.794;23.302;2023-05-22T03:13:47;95349.50;;;11.69;nan
70072;BME280;57434;42.794;23.302;2023-05-22T03:14:49;95373.56;;;11.76;nan
70072;BME280;57434;42.794;23.302;2023-05-22T03:15:51;95335.19;;;11.62;nan
70072;BME280;57434;42.794;23.302;2023-05-22T03:16:53;95199.09;;;10.70;nan
70072;BME280;57434;42.794;23.302;2023-05-22T03:17:55;95256.91;;;11.10;nan
70072;BME280;57434;42.794;23.302;2023-05-22T03:19:14;95369.97;;;11.86;nan
70072;BME280;57434;42.794;23.302;2023-05-22T03:20:16;95302.22;;;11.51;nan
70072;BME280;57434;42.794;23.302;2023-05-22T03:21:18;95330.63;;;11.81;nan
70072;BME280;57434;42.794;23.302;2023-05-22T03:22:20;95401.25;;;12.16;nan
70072;BME280;57434;42.794;23.302;2023-05-22T03:23:22;95360.03;;;11.97;nan
70072;BME280;57434;42.794;23.302;2023-05-22T03:24:23;95364.91;;;12.02;nan
70072;BME280;57434;42.794;23.302;2023-05-22T03:25:25;95365.69;;;12.13;nan
70072;BME280;57434;42.794;23.302;2023-05-22T03:26:28;95364.69;;;12.16;nan
70072;BME280;57434;42.794;23.302;2023-05-22T03:27:29;95362.63;;;12.11;nan
70072;BME280;57434;42.794;23.302;2023-05-22T03:28:31;95264.38;;;11.35;nan
70072;BME280;57434;42.794;23.302;2023-05-22T03:29:33;95349.56;;;11.97;nan
70072;BME280;57434;42.794;23.302;2023-05-22T03:30:35;95302.72;;;11.49;nan
70072;BME280;57434;42.794;23.302;2023-05-22T03:31:37;95364.13;;;11.96;nan
70072;BME280;57434;42.794;23.302;2023-05-22T03:32:39;95351.84;;;11.93;nan
70072;BME280;57434;42.794;23.302;2023-05-22T03:33:41;95242.13;;;11.15;nan
70072;BME280;57434;42.794;23.302;2023-05-22T03:34:43;95342.38;;;11.79;nan
70072;BME280;57434;42.794;23.302;2023-05-22T03:35:45;95235.44;;;11.07;nan
70072;BME280;57434;42.794;23.302;2023-05-22T03:36:47;95267.94;;;11.25;nan
70072;BME280;57434;42.794;23.302;2023-05-22T03:37:49;95176.34;;;10.62;nan
70072;BME280;57434;42.794;23.302;2023-05-22T03:38:51;95356.44;;;11.79;nan
70072;BME280;57434;42.794;23.302;2023-05-22T03:39:53;95363.09;;;11.87;nan
70072;BME280;57434;42.794;23.302;2023-05-22T03:40:55;95262.81;;;11.23;nan
70072;BME280;57434;42.794;23.302;2023-05-22T03:41:57;95383.28;;;11.92;nan
70072;BME280;57434;42.794;23.302;2023-05-22T03:42:58;95290.97;;;11.45;nan
70072;BME280;57434;42.794;23.302;2023-05-22T03:44:01;95234.19;;;11.02;nan
70072;BME280;57434;42.794;23.302;2023-05-22T03:45:03;95383.81;;;11.96;nan
70072;BME280;57434;42.794;23.302;2023-05-22T03:46:05;95387.91;;;11.95;nan
70072;BME280;57434;42.794;23.302;2023-05-22T03:47:07;95352.34;;;11.92;nan
70072;BME280;57434;42.794;23.302;2023-05-22T03:48:09;95248.03;;;11.34;nan
70072;BME280;57434;42.794;23.302;2023-05-22T03:49:11;95262.84;;;11.40;nan
70072;BME280;57434;42.794;23.302;2023-05-22T03:50:13;95405.88;;;12.31;nan
70072;BME280;57434;42.794;23.302;2023-05-22T03:51:15;95371.59;;;12.15;nan
70072;BME280;57434;42.794;23.302;2023-05-22T03:52:20;95288.72;;;11.72;nan
70072;BME280;57434;42.794;23.302;2023-05-22T03:53:23;95286.41;;;11.70;nan
70072;BME280;57434;42.794;23.302;2023-05-22T03:54:24;95257.03;;;11.54;nan
70072;BME280;57434;42.794;23.302;2023-05-22T03:55:26;95313.50;;;11.90;nan
70072;BME280;57434;42.794;23.302;2023-05-22T03:56:28;95341.94;;;12.20;nan
70072;BME280;57434;42.794;23.302;2023-05-22T03:57:30;95262.13;;;11.62;nan
70072;BME280;57434;42.794;23.302;2023-05-22T03:58:32;95372.63;;;12.46;nan
70072;BME280;57434;42.794;23.302;2023-05-22T03:59:34;95376.22;;;12.58;nan
70072;BME280;57434;42.794;23.302;2023-05-22T04:00:36;95364.97;;;12.52;nan
70072;BME280;57434;42.794;23.302;2023-05-22T04:01:38;95406.66;;;12.59;nan
70072;BME280;57434;42.794;23.302;2023-05-22T04:02:40;95309.72;;;12.15;nan
70072;BME280;57434;42.794;23.302;2023-05-22T04:03:42;95382.34;;;12.67;nan
70072;BME280;57434;42.794;23.302;2023-05-22T04:04:44;95326.09;;;12.34;nan
70072;BME280;57434;42.794;23.302;2023-05-22T04:05:46;95333.47;;;12.14;nan
70072;BME280;57434;42.794;23.302;2023-05-22T04:06:48;95390.03;;;12.61;nan
70072;BME280;57434;42.794;23.302;2023-05-22T04:07:50;95402.06;;;12.62;nan
70072;BME280;57434;42.794;23.302;2023-05-22T04:08:52;95427.88;;;12.77;nan
70072;BME280;57434;42.794;23.302;2023-05-22T04:09:54;95363.94;;;12.55;nan
70072;BME280;57434;42.794;23.302;2023-05-22T04:10:56;95405.09;;;12.86;nan
70072;BME280;57434;42.794;23.302;2023-05-22T04:11:57;95386.44;;;12.77;nan
70072;BME280;57434;42.794;23.302;2023-05-22T04:12:59;95380.03;;;12.82;nan
70072;BME280;57434;42.794;23.302;2023-05-22T04:14:02;95379.00;;;12.80;nan
70072;BME280;57434;42.794;23.302;2023-05-22T04:15:05;95409.16;;;12.96;nan
70072;BME280;57434;42.794;23.302;2023-05-22T04:16:07;95362.38;;;12.71;nan
70072;BME280;57434;42.794;23.302;2023-05-22T04:17:09;95289.03;;;12.24;nan
70072;BME280;57434;42.794;23.302;2023-05-22T04:18:11;95406.63;;;12.76;nan
70072;BME280;57434;42.794;23.302;2023-05-22T04:19:13;95420.72;;;12.70;nan
70072;BME280;57434;42.794;23.302;2023-05-22T04:20:14;95403.81;;;12.70;nan
70072;BME280;57434;42.794;23.302;2023-05-22T04:21:16;95406.41;;;12.51;nan
70072;BME280;57434;42.794;23.302;2023-05-22T04:22:18;95429.16;;;12.37;nan
70072;BME280;57434;42.794;23.302;2023-05-22T04:23:20;95386.19;;;12.25;nan
70072;BME280;57434;42.794;23.302;2023-05-22T04:24:22;95334.22;;;11.98;nan
70072;BME280;57434;42.794;23.302;2023-05-22T04:25:24;95390.78;;;12.34;nan
70072;BME280;57434;42.794;23.302;2023-05-22T04:26:27;95291.28;;;11.75;nan
70072;BME280;57434;42.794;23.302;2023-05-22T04:27:28;95376.22;;;12.30;nan
70072;BME280;57434;42.794;23.302;2023-05-22T04:28:30;95388.25;;;12.30;nan
70072;BME280;57434;42.794;23.302;2023-05-22T04:29:32;95269.00;;;11.49;nan
70072;BME280;57434;42.794;23.302;2023-05-22T04:30:34;95283.59;;;11.53;nan
70072;BME280;57434;42.794;23.302;2023-05-22T04:31:36;95404.84;;;12.28;nan
70072;BME280;57434;42.794;23.302;2023-05-22T04:32:38;95221.91;;;10.94;nan
70072;BME280;57434;42.794;23.302;2023-05-22T04:33:40;95358.25;;;11.99;nan
70072;BME280;57434;42.794;23.302;2023-05-22T04:34:46;95318.31;;;11.62;nan
70072;BME280;57434;42.794;23.302;2023-05-22T04:35:49;95254.88;;;11.16;nan
70072;BME280;57434;42.794;23.302;2023-05-22T04:36:51;95412.72;;;12.13;nan
70072;BME280;57434;42.794;23.302;2023-05-22T04:37:55;95410.22;;;12.26;nan
70072;BME280;57434;42.794;23.302;2023-05-22T04:38:57;95381.81;;;12.18;nan
70072;BME280;57434;42.794;23.302;2023-05-22T04:39:59;95294.59;;;11.74;nan
70072;BME280;57434;42.794;23.302;2023-05-22T04:41:04;95366.72;;;12.16;nan
70072;BME280;57434;42.794;23.302;2023-05-22T04:42:06;95307.88;;;11.73;nan
70072;BME280;57434;42.794;23.302;2023-05-22T04:43:08;95409.72;;;12.61;nan
70072;BME280;57434;42.794;23.302;2023-05-22T04:44:10;95284.41;;;11.82;nan
70072;BME280;57434;42.794;23.302;2023-05-22T04:45:11;95408.44;;;12.84;nan
70072;BME280;57434;42.794;23.302;2023-05-22T04:46:14;95289.78;;;12.25;nan
70072;BME280;57434;42.794;23.302;2023-05-22T04:47:16;95289.78;;;12.36;nan
70072;BME280;57434;42.794;23.302;2023-05-22T04:48:18;95381.00;;;13.13;nan
70072;BME280;57434;42.794;23.302;2023-05-22T04:49:20;95394.25;;;13.23;nan
70072;BME280;57434;42.794;23.302;2023-05-22T04:50:22;95392.97;;;13.30;nan
70072;BME280;57434;42.794;23.302;2023-05-22T04:51:23;95312.97;;;12.81;nan
70072;BME280;57434;42.794;23.302;2023-05-22T04:52:25;95284.06;;;12.80;nan
70072;BME280;57434;42.794;23.302;2023-05-22T04:53:27;95264.63;;;12.71;nan
70072;BME280;57434;42.794;23.302;2023-05-22T04:54:29;95241.09;;;12.69;nan
70072;BME280;57434;42.794;23.302;2023-05-22T04:55:31;95400.00;;;13.76;nan
70072;BME280;57434;42.794;23.302;2023-05-22T04:56:33;95407.41;;;13.79;nan
70072;BME280;57434;42.794;23.302;2023-05-22T04:57:38;95407.25;;;13.60;nan
70072;BME280;57434;42.794;23.302;2023-05-22T04:58:40;95409.53;;;13.67;nan
70072;BME280;57434;42.794;23.302;2023-05-22T04:59:42;95394.56;;;13.83;nan
70072;BME280;57434;42.794;23.302;2023-05-22T05:00:44;95279.34;;;13.11;nan
70072;BME280;57434;42.794;23.302;2023-05-22T05:01:46;95280.88;;;13.12;nan
70072;BME280;57434;42.794;23.302;2023-05-22T05:02:47;95429.31;;;14.08;nan
70072;BME280;57434;42.794;23.302;2023-05-22T05:03:49;95277.53;;;13.13;nan
70072;BME280;57434;42.794;23.302;2023-05-22T05:04:51;95299.50;;;13.26;nan
70072;BME280;57434;42.794;23.302;2023-05-22T05:05:53;95410.31;;;14.14;nan
70072;BME280;57434;42.794;23.302;2023-05-22T05:06:55;95307.91;;;13.37;nan
70072;BME280;57434;42.794;23.302;2023-05-22T05:07:57;95391.94;;;14.02;nan
70072;BME280;57434;42.794;23.302;2023-05-22T05:08:59;95295.38;;;13.44;nan
70072;BME280;57434;42.794;23.302;2023-05-22T05:10:00;95414.13;;;14.17;nan
70072;BME280;57434;42.794;23.302;2023-05-22T05:11:03;95297.91;;;13.47;nan
70072;BME280;57434;42.794;23.302;2023-05-22T05:12:05;95329.03;;;13.72;nan
70072;BME280;57434;42.794;23.302;2023-05-22T05:13:07;95410.53;;;14.16;nan
70072;BME280;57434;42.794;23.302;2023-05-22T05:14:09;95435.38;;;14.23;nan
70072;BME280;57434;42.794;23.302;2023-05-22T05:15:11;95297.59;;;13.56;nan
70072;BME280;57434;42.794;23.302;2023-05-22T05:16:13;95308.00;;;13.73;nan
70072;BME280;57434;42.794;23.302;2023-05-22T05:17:15;95311.53;;;13.79;nan
70072;BME280;57434;42.794;23.302;2023-05-22T05:18:17;95267.44;;;13.46;nan
70072;BME280;57434;42.794;23.302;2023-05-22T05:19:19;95304.94;;;13.71;nan
70072;BME280;57434;42.794;23.302;2023-05-22T05:20:22;95401.69;;;14.37;nan
70072;BME280;57434;42.794;23.302;2023-05-22T05:21:24;95440.09;;;14.51;nan
70072;BME280;57434;42.794;23.302;2023-05-22T05:22:26;95421.09;;;14.57;nan
70072;BME280;57434;42.794;23.302;2023-05-22T05:23:27;95282.16;;;13.69;nan
70072;BME280;57434;42.794;23.302;2023-05-22T05:24:29;95431.91;;;14.47;nan
70072;BME280;57434;42.794;23.302;2023-05-22T05:25:31;95343.66;;;14.06;nan
70072;BME280;57434;42.794;23.302;2023-05-22T05:26:33;95389.56;;;14.47;nan
70072;BME280;57434;42.794;23.302;2023-05-22T05:27:35;95320.06;;;14.09;nan
70072;BME280;57434;42.794;23.302;2023-05-22T05:28:37;95430.47;;;14.71;nan
70072;BME280;57434;42.794;23.302;2023-05-22T05:29:39;95398.41;;;14.68;nan
70072;BME280;57434;42.794;23.302;2023-05-22T05:30:40;95410.41;;;14.74;nan
70072;BME280;57434;42.794;23.302;2023-05-22T05:31:42;95372.59;;;14.53;nan
70072;BME280;57434;42.794;23.302;2023-05-22T05:32:44;95335.66;;;14.15;nan
70072;BME280;57434;42.794;23.302;2023-05-22T05:33:47;95377.47;;;14.52;nan
70072;BME280;57434;42.794;23.302;2023-05-22T05:34:48;95307.13;;;14.24;nan
70072;BME280;57434;42.794;23.302;2023-05-22T05:35:50;95400.72;;;14.94;nan
70072;BME280;57434;42.794;23.302;2023-05-22T05:36:52;95278.91;;;14.24;nan
70072;BME280;57434;42.794;23.302;2023-05-22T05:37:54;95313.53;;;14.55;nan
70072;BME280;57434;42.794;23.302;2023-05-22T05:38:56;95433.75;;;15.35;nan
70072;BME280;57434;42.794;23.302;2023-05-22T05:39:58;95278.22;;;14.43;nan
70072;BME280;57434;42.794;23.302;2023-05-22T05:41:00;95317.72;;;14.78;nan
70072;BME280;57434;42.794;23.302;2023-05-22T05:42:02;95406.91;;;15.41;nan
70072;BME280;57434;42.794;23.302;2023-05-22T05:43:04;95279.28;;;14.70;nan
70072;BME280;57434;42.794;23.302;2023-05-22T05:44:07;95418.50;;;15.68;nan
70072;BME280;57434;42.794;23.302;2023-05-22T05:45:09;95437.97;;;15.71;nan
70072;BME280;57434;42.794;23.302;2023-05-22T05:46:11;95345.41;;;15.29;nan
70072;BME280;57434;42.794;23.302;2023-05-22T05:47:13;95407.19;;;15.68;nan
70072;BME280;57434;42.794;23.302;2023-05-22T05:48:15;95425.25;;;15.83;nan
70072;BME280;57434;42.794;23.302;2023-05-22T05:49:18;95422.94;;;15.82;nan